createdAt,value
2019-03-06T00:02:22.930Z,24.10
2019-03-06T00:04:54.873Z,23.60
2019-03-06T00:07:27.650Z,23.80
2019-03-06T00:10:01.650Z,24.20
2019-03-06T00:12:34.900Z,24.30
2019-03-06T00:15:07.954Z,24.20
2019-03-06T00:17:40.226Z,23.80
2019-03-06T00:20:12.137Z,24.00
2019-03-06T00:22:44.005Z,24.30
2019-03-06T00:25:16.198Z,24.20
2019-03-06T00:27:47.952Z,24.40
2019-03-06T00:30:21.092Z,24.10
2019-03-06T00:32:52.964Z,23.90
2019-03-06T00:35:28.387Z,23.80
2019-03-06T00:38:00.237Z,24.00
2019-03-06T00:40:51.493Z,24.40
2019-03-06T00:43:23.340Z,24.30
2019-03-06T00:45:55.352Z,24.10
2019-03-06T00:48:27.166Z,24.20
2019-03-06T00:50:59.134Z,24.20
2019-03-06T00:53:31.025Z,24.10
2019-03-06T00:56:03.222Z,23.80
2019-03-06T00:58:35.042Z,23.70
2019-03-06T01:01:07.050Z,23.90
2019-03-06T01:03:38.829Z,24.40
2019-03-06T01:06:10.685Z,24.20
2019-03-06T01:08:42.639Z,24.40
2019-03-06T01:11:15.101Z,24.50
2019-03-06T01:13:46.889Z,24.60
2019-03-06T01:16:18.878Z,24.50
2019-03-06T01:18:50.653Z,24.60
2019-03-06T01:21:22.764Z,24.70
2019-03-06T01:23:54.532Z,24.90
2019-03-06T01:26:26.906Z,24.40
2019-03-06T01:28:58.705Z,24.80
2019-03-06T01:31:31.232Z,24.50
2019-03-06T01:34:27.697Z,24.50
2019-03-06T01:37:26.050Z,24.70
2019-03-06T01:40:17.081Z,24.40
2019-03-06T01:42:53.737Z,24.60
2019-03-06T01:45:25.757Z,24.70
2019-03-06T01:47:57.646Z,24.50
2019-03-06T01:50:29.453Z,24.90
2019-03-06T01:53:01.338Z,24.90
2019-03-06T01:55:33.110Z,24.90
2019-03-06T01:58:04.947Z,25.20
2019-03-06T02:00:37.029Z,25.40
2019-03-06T02:03:08.813Z,25.50
2019-03-06T02:05:40.575Z,25.30
2019-03-06T02:08:12.869Z,25.40
2019-03-06T02:10:44.643Z,25.70
2019-03-06T02:13:16.607Z,25.70
2019-03-06T02:15:48.454Z,25.80
2019-03-06T02:18:20.608Z,25.80
2019-03-06T02:20:52.348Z,25.70
2019-03-06T02:23:24.335Z,25.90
2019-03-06T02:25:56.192Z,25.80
2019-03-06T02:28:28.477Z,25.70
2019-03-06T02:31:00.353Z,25.50
2019-03-06T02:33:32.607Z,25.70
2019-03-06T02:36:04.403Z,25.40
2019-03-06T02:38:36.425Z,25.40
2019-03-06T02:41:08.232Z,25.60
2019-03-06T02:43:40.810Z,25.90
2019-03-06T02:46:12.690Z,25.40
2019-03-06T02:48:44.796Z,25.50
2019-03-06T02:51:16.598Z,25.70
2019-03-06T02:53:48.829Z,25.90
2019-03-06T02:56:20.723Z,25.80
2019-03-06T02:59:01.456Z,25.80
2019-03-06T03:01:47.090Z,26.10
2019-03-06T03:04:26.443Z,25.90
2019-03-06T03:07:04.318Z,25.80
2019-03-06T03:09:36.184Z,25.90
2019-03-06T03:12:08.069Z,25.80
2019-03-06T03:14:40.362Z,26.00
2019-03-06T03:17:12.278Z,25.80
2019-03-06T03:19:44.113Z,25.90
2019-03-06T03:22:15.910Z,26.00
2019-03-06T03:24:47.724Z,25.80
2019-03-06T03:27:19.583Z,25.50
2019-03-06T03:29:51.945Z,25.60
2019-03-06T03:32:23.723Z,25.70
2019-03-06T03:34:55.984Z,25.60
2019-03-06T03:37:27.726Z,25.60
2019-03-06T03:39:59.910Z,25.10
2019-03-06T03:42:32.259Z,25.10
2019-03-06T03:45:04.865Z,25.20
2019-03-06T03:47:36.694Z,25.30
2019-03-06T03:50:09.712Z,24.90
2019-03-06T03:52:41.765Z,25.20
2019-03-06T03:55:14.150Z,25.30
2019-03-06T03:57:46.048Z,25.10
2019-03-06T04:00:18.592Z,25.20
2019-03-06T04:02:50.421Z,25.50
2019-03-06T04:05:22.515Z,25.80
2019-03-06T04:07:54.321Z,25.50
2019-03-06T04:10:26.444Z,25.80
2019-03-06T04:12:58.211Z,26.20
2019-03-06T04:15:30.208Z,26.40
2019-03-06T04:18:02.012Z,26.30
2019-03-06T04:20:33.989Z,26.50
2019-03-06T04:23:05.753Z,26.80
2019-03-06T04:25:38.427Z,26.80
2019-03-06T04:28:11.848Z,27.00
2019-03-06T04:30:44.076Z,27.00
2019-03-06T04:33:15.829Z,27.10
2019-03-06T04:35:48.224Z,27.20
2019-03-06T04:38:20.012Z,27.20
2019-03-06T04:40:51.887Z,27.30
2019-03-06T04:43:23.608Z,27.30
2019-03-06T04:45:55.460Z,27.30
2019-03-06T04:48:27.537Z,27.40
2019-03-06T04:50:59.469Z,27.30
2019-03-06T04:53:31.429Z,27.40
2019-03-06T04:56:03.507Z,27.40
2019-03-06T04:58:35.480Z,27.40
2019-03-06T05:01:07.556Z,27.40
2019-03-06T05:03:39.387Z,27.40
2019-03-06T05:06:11.355Z,27.40
2019-03-06T05:08:43.089Z,27.50
2019-03-06T05:11:15.120Z,27.40
2019-03-06T05:13:46.870Z,27.40
2019-03-06T05:16:18.796Z,27.50
2019-03-06T05:18:57.185Z,27.40
2019-03-06T05:21:29.005Z,27.50
2019-03-06T05:24:00.777Z,27.50
2019-03-06T05:26:32.901Z,27.60
2019-03-06T05:29:04.635Z,27.60
2019-03-06T05:31:36.739Z,27.60
2019-03-06T05:34:08.487Z,27.60
2019-03-06T05:37:51.617Z,27.60
2019-03-06T05:40:23.429Z,27.60
2019-03-06T05:42:55.343Z,27.50
2019-03-06T05:45:27.187Z,27.40
2019-03-06T05:47:59.089Z,27.50
2019-03-06T05:50:30.891Z,27.50
2019-03-06T05:53:02.894Z,27.50
2019-03-06T05:55:34.668Z,27.40
2019-03-06T05:58:06.539Z,27.40
2019-03-06T06:00:38.342Z,27.50
2019-03-06T06:03:10.860Z,27.50
2019-03-06T06:05:42.629Z,27.50
2019-03-06T06:08:14.390Z,27.50
2019-03-06T06:10:46.157Z,27.50
2019-03-06T06:13:18.190Z,27.40
2019-03-06T06:15:49.920Z,27.40
2019-03-06T06:18:22.125Z,27.40
2019-03-06T06:21:07.580Z,27.30
2019-03-06T06:23:43.256Z,27.10
2019-03-06T06:26:14.993Z,27.20
2019-03-06T06:28:46.782Z,27.20
2019-03-06T06:31:19.743Z,27.20
2019-03-06T06:33:52.028Z,27.20
2019-03-06T06:36:23.795Z,27.20
2019-03-06T06:38:56.979Z,27.20
2019-03-06T06:41:28.748Z,27.20
2019-03-06T06:44:00.568Z,26.90
2019-03-06T06:46:32.453Z,27.00
2019-03-06T06:49:04.628Z,27.00
2019-03-06T06:52:17.233Z,27.00
2019-03-06T06:55:54.949Z,26.90
2019-03-06T06:59:13.985Z,27.00
2019-03-06T07:03:08.214Z,27.00
2019-03-06T07:05:56.860Z,27.10
2019-03-06T07:08:56.572Z,27.10
2019-03-06T07:11:45.821Z,27.20
2019-03-06T07:14:37.260Z,27.20
2019-03-06T07:17:24.949Z,27.30
2019-03-06T07:20:34.024Z,27.30
2019-03-06T07:23:17.331Z,27.30
2019-03-06T07:26:13.866Z,27.40
2019-03-06T07:29:04.527Z,27.50
2019-03-06T07:32:01.981Z,27.50
2019-03-06T07:34:54.844Z,27.40
2019-03-06T07:37:47.113Z,27.50
2019-03-06T07:40:27.518Z,27.40
2019-03-06T07:43:13.536Z,27.50
2019-03-06T07:46:05.865Z,27.60
2019-03-06T07:49:02.200Z,27.40
2019-03-06T07:51:40.222Z,27.40
2019-03-06T07:54:49.469Z,27.40
2019-03-06T07:57:27.778Z,27.00
2019-03-06T08:00:00.803Z,27.00
2019-03-06T08:03:13.933Z,26.90
2019-03-06T08:05:45.944Z,26.80
2019-03-06T08:08:18.977Z,26.50
2019-03-06T08:10:52.082Z,26.20
2019-03-06T08:13:41.520Z,26.30
2019-03-06T08:16:41.466Z,26.20
2019-03-06T08:19:34.935Z,25.90
2019-03-06T08:22:34.169Z,26.30
2019-03-06T08:25:15.201Z,26.20
2019-03-06T08:27:47.554Z,26.20
2019-03-06T08:30:19.531Z,26.30
2019-03-06T08:32:52.694Z,26.50
2019-03-06T08:35:24.569Z,26.30
2019-03-06T08:37:56.482Z,26.50
2019-03-06T08:40:28.307Z,26.60
2019-03-06T08:43:00.447Z,26.50
2019-03-06T08:45:41.324Z,26.60
2019-03-06T08:48:20.347Z,26.60
2019-03-06T08:51:04.207Z,26.90
2019-03-06T08:53:58.045Z,26.80
2019-03-06T08:56:43.182Z,26.20
2019-03-06T08:59:34.862Z,26.60
2019-03-06T09:02:19.769Z,26.30
2019-03-06T09:05:06.561Z,26.00
2019-03-06T09:07:53.833Z,26.20
2019-03-06T09:10:40.320Z,26.30
2019-03-06T09:13:46.521Z,26.20
2019-03-06T09:16:36.137Z,25.90
2019-03-06T09:19:42.262Z,26.20
2019-03-06T09:22:33.004Z,26.70
2019-03-06T09:25:29.861Z,26.90
2019-03-06T09:28:17.467Z,26.90
2019-03-06T09:31:11.261Z,27.10
2019-03-06T09:34:02.344Z,26.90
2019-03-06T09:36:53.601Z,26.70
2019-03-06T09:39:43.255Z,26.70
2019-03-06T09:42:27.810Z,26.80
2019-03-06T09:45:17.276Z,27.10
2019-03-06T09:47:55.830Z,27.10
2019-03-06T09:50:32.887Z,26.60
2019-03-06T09:53:23.967Z,27.10
2019-03-06T09:56:08.747Z,26.90
2019-03-06T09:58:59.402Z,26.70
2019-03-06T10:01:48.914Z,26.90
2019-03-06T10:04:38.317Z,26.70
2019-03-06T10:07:17.830Z,26.60
2019-03-06T10:09:59.293Z,26.70
2019-03-06T10:12:36.715Z,26.70
2019-03-06T10:15:23.247Z,26.50
2019-03-06T10:18:08.344Z,26.50
2019-03-06T10:20:40.301Z,26.80
2019-03-06T10:23:12.422Z,26.80
2019-03-06T10:25:44.789Z,26.90
2019-03-06T10:28:27.324Z,26.90
2019-03-06T10:30:51.752Z,27.10
2019-03-06T10:33:23.858Z,26.90
2019-03-06T10:35:55.806Z,26.30
2019-03-06T10:38:28.003Z,26.30
2019-03-06T10:41:00.296Z,26.70
2019-03-06T10:43:32.430Z,26.90
2019-03-06T10:46:04.287Z,26.50
2019-03-06T10:48:36.270Z,26.70
2019-03-06T10:51:08.349Z,26.80
2019-03-06T10:53:41.554Z,27.10
2019-03-06T10:56:14.090Z,27.40
2019-03-06T10:58:46.187Z,27.30
2019-03-06T11:01:18.330Z,27.20
2019-03-06T11:04:07.911Z,27.30
2019-03-06T11:06:40.204Z,27.10
2019-03-06T11:09:13.313Z,27.10
2019-03-06T11:11:45.351Z,27.40
2019-03-06T11:14:17.362Z,27.50
2019-03-06T11:16:49.454Z,27.50
2019-03-06T11:19:22.929Z,27.60
2019-03-06T11:21:54.915Z,27.60
2019-03-06T11:24:27.212Z,27.60
2019-03-06T11:26:59.562Z,28.00
2019-03-06T11:29:31.382Z,28.00
2019-03-06T11:32:03.358Z,28.00
2019-03-06T11:34:35.353Z,27.50
2019-03-06T11:37:07.996Z,27.70
2019-03-06T11:39:40.315Z,27.30
2019-03-06T11:42:12.587Z,27.30
2019-03-06T11:44:45.438Z,27.30
2019-03-06T11:47:17.649Z,27.70
2019-03-06T11:49:49.799Z,27.70
2019-03-06T11:52:22.513Z,27.20
2019-03-06T11:54:54.526Z,27.10
2019-03-06T11:57:26.388Z,26.80
2019-03-06T11:59:58.593Z,27.40
2019-03-06T12:02:30.599Z,27.30
2019-03-06T12:05:03.346Z,27.50
2019-03-06T12:07:35.347Z,27.20
2019-03-06T12:10:08.591Z,27.30
2019-03-06T12:12:41.151Z,27.70
2019-03-06T12:15:15.601Z,27.80
2019-03-06T12:17:47.515Z,27.80
2019-03-06T12:20:19.380Z,28.20
2019-03-06T12:22:51.280Z,28.10
2019-03-06T12:25:23.486Z,27.90
2019-03-06T12:27:55.870Z,27.60
2019-03-06T12:30:28.074Z,26.90
2019-03-06T12:32:59.905Z,26.00
2019-03-06T12:35:32.465Z,26.20
2019-03-06T12:38:04.779Z,26.60
2019-03-06T12:40:37.175Z,27.20
2019-03-06T12:43:10.054Z,27.60
2019-03-06T12:45:43.869Z,28.10
2019-03-06T12:48:15.881Z,27.00
2019-03-06T12:50:55.143Z,26.60
2019-03-06T12:53:21.341Z,26.60
2019-03-06T12:55:53.395Z,27.30
2019-03-06T12:58:25.904Z,27.50
2019-03-06T13:00:57.835Z,27.90
2019-03-06T13:03:29.647Z,28.30
2019-03-06T13:06:01.631Z,28.10
2019-03-06T13:08:33.433Z,28.60
2019-03-06T13:11:05.449Z,28.60
2019-03-06T13:13:37.632Z,28.60
2019-03-06T13:16:09.745Z,29.00
2019-03-06T13:18:41.553Z,29.40
2019-03-06T13:21:13.602Z,29.80
2019-03-06T13:23:46.465Z,30.80
2019-03-06T13:26:18.773Z,31.40
2019-03-06T13:28:57.435Z,31.80
2019-03-06T13:31:24.726Z,32.50
2019-03-06T13:34:18.337Z,32.60
2019-03-06T13:36:50.468Z,33.60
2019-03-06T13:39:22.290Z,34.50
2019-03-06T13:41:54.917Z,35.60
2019-03-06T13:44:27.105Z,36.10
2019-03-06T13:46:59.117Z,36.90
2019-03-06T13:49:31.014Z,37.70
2019-03-06T13:52:03.086Z,38.60
2019-03-06T13:54:35.333Z,39.30
2019-03-06T13:57:07.266Z,39.60
2019-03-06T13:59:39.230Z,39.80
2019-03-06T14:02:12.131Z,39.90
2019-03-06T14:04:43.975Z,40.20
2019-03-06T14:07:16.103Z,40.40
2019-03-06T14:09:48.096Z,40.60
2019-03-06T14:12:20.082Z,40.80
2019-03-06T14:14:52.318Z,40.90
2019-03-06T14:17:24.449Z,40.90
2019-03-06T14:19:56.259Z,41.10
2019-03-06T14:22:28.479Z,41.30
2019-03-06T14:25:00.339Z,41.60
2019-03-06T14:27:32.717Z,41.90
2019-03-06T14:30:06.943Z,42.00
2019-03-06T14:32:39.105Z,42.00
2019-03-06T14:35:11.394Z,42.00
2019-03-06T14:37:43.638Z,42.00
2019-03-06T14:40:24.765Z,41.90
2019-03-06T14:42:57.418Z,41.70
2019-03-06T14:45:30.174Z,41.50
2019-03-06T14:48:02.291Z,40.90
2019-03-06T14:50:34.076Z,40.20
2019-03-06T14:53:07.630Z,40.00
2019-03-06T14:55:39.443Z,39.80
2019-03-06T14:58:11.344Z,40.10
2019-03-06T15:00:43.384Z,40.20
2019-03-06T15:03:15.318Z,40.50
2019-03-06T15:05:47.564Z,40.50
2019-03-06T15:08:19.922Z,40.30
2019-03-06T15:10:51.851Z,40.30
2019-03-06T15:13:23.938Z,40.50
2019-03-06T15:15:56.117Z,40.30
2019-03-06T15:18:28.062Z,40.10
2019-03-06T15:21:00.450Z,39.90
2019-03-06T15:23:32.556Z,39.50
2019-03-06T15:26:05.551Z,39.00
2019-03-06T15:28:37.667Z,38.40
2019-03-06T15:31:10.305Z,37.70
2019-03-06T15:33:44.696Z,37.20
2019-03-06T15:36:16.321Z,36.60
2019-03-06T15:38:49.114Z,36.10
2019-03-06T15:41:21.124Z,35.60
2019-03-06T15:43:53.362Z,35.20
2019-03-06T15:46:25.598Z,34.80
2019-03-06T15:48:57.899Z,34.60
2019-03-06T15:51:29.937Z,34.30
2019-03-06T15:54:01.760Z,34.10
2019-03-06T15:56:33.899Z,33.80
2019-03-06T15:59:14.624Z,33.70
2019-03-06T16:01:40.015Z,33.50
2019-03-06T16:04:12.336Z,33.30
2019-03-06T16:06:53.588Z,33.20
2019-03-06T16:09:19.130Z,32.90
2019-03-06T16:11:51.672Z,32.70
2019-03-06T16:14:25.662Z,32.60
2019-03-06T16:16:59.066Z,32.40
2019-03-06T16:19:32.029Z,32.30
2019-03-06T16:22:04.298Z,32.20
2019-03-06T16:24:37.654Z,32.00
2019-03-06T16:27:09.911Z,31.80
2019-03-06T16:29:41.971Z,31.60
2019-03-06T16:32:14.236Z,31.50
2019-03-06T16:34:46.551Z,31.30
2019-03-06T16:37:18.574Z,31.20
2019-03-06T16:39:51.110Z,31.00
2019-03-06T16:42:23.330Z,30.90
2019-03-06T16:44:55.554Z,30.70
2019-03-06T16:47:28.479Z,30.60
2019-03-06T16:50:00.704Z,30.40
2019-03-06T16:52:33.946Z,30.30
2019-03-06T16:55:07.169Z,30.20
2019-03-06T16:57:40.315Z,30.10
2019-03-06T17:00:26.076Z,29.90
2019-03-06T17:02:59.242Z,29.80
2019-03-06T17:05:33.578Z,29.70
2019-03-06T17:08:07.454Z,29.50
2019-03-06T17:10:41.024Z,29.40
2019-03-06T17:13:13.140Z,29.30
2019-03-06T17:15:45.503Z,29.20
2019-03-06T17:18:17.920Z,29.20
2019-03-06T17:20:50.232Z,29.00
2019-03-06T17:23:22.123Z,29.00
2019-03-06T17:25:54.226Z,28.90
2019-03-06T17:28:26.149Z,28.80
2019-03-06T17:30:58.666Z,28.80
2019-03-06T17:33:30.828Z,28.70
2019-03-06T17:36:03.088Z,28.70
2019-03-06T17:38:36.453Z,28.60
2019-03-06T17:41:10.034Z,28.60
2019-03-06T17:43:42.840Z,28.40
2019-03-06T17:46:16.842Z,28.30
2019-03-06T17:48:50.235Z,28.20
2019-03-06T17:51:23.179Z,28.20
2019-03-06T17:53:56.877Z,28.00
2019-03-06T17:56:32.149Z,27.90
2019-03-06T17:59:05.813Z,27.90
2019-03-06T18:01:39.413Z,28.00
2019-03-06T18:04:19.803Z,27.80
2019-03-06T18:06:52.957Z,27.60
2019-03-06T18:09:25.549Z,27.60
2019-03-06T18:11:59.352Z,27.40
2019-03-06T18:14:32.149Z,27.30
2019-03-06T18:17:04.934Z,27.30
2019-03-06T18:19:37.733Z,27.20
2019-03-06T18:22:10.781Z,27.00
2019-03-06T18:24:43.529Z,27.10
2019-03-06T18:27:16.348Z,27.10
2019-03-06T18:29:50.602Z,27.10
2019-03-06T18:32:24.633Z,27.10
2019-03-06T18:34:57.939Z,26.90
2019-03-06T18:37:31.884Z,27.00
2019-03-06T18:40:05.639Z,26.50
2019-03-06T18:42:39.269Z,26.50
2019-03-06T18:45:16.567Z,26.30
2019-03-06T18:47:50.541Z,26.10
2019-03-06T18:50:25.171Z,26.00
2019-03-06T18:52:59.682Z,26.20
2019-03-06T18:55:33.188Z,26.20
2019-03-06T18:58:07.914Z,25.90
2019-03-06T19:00:42.990Z,25.80
2019-03-06T19:03:17.168Z,25.60
2019-03-06T19:05:51.664Z,25.90
2019-03-06T19:08:31.404Z,26.10
2019-03-06T19:11:01.362Z,25.80
2019-03-06T19:13:35.382Z,25.50
2019-03-06T19:16:08.890Z,25.70
2019-03-06T19:18:45.338Z,25.50
2019-03-06T19:21:18.831Z,25.50
2019-03-06T19:23:52.552Z,25.40
2019-03-06T19:26:25.891Z,25.20
2019-03-06T19:28:59.928Z,25.30
2019-03-06T19:31:33.329Z,25.50
2019-03-06T19:34:07.851Z,25.60
2019-03-06T19:36:42.461Z,25.80
2019-03-06T19:39:16.274Z,25.90
2019-03-06T19:41:49.802Z,26.00
2019-03-06T19:44:23.839Z,26.10
2019-03-06T19:46:57.522Z,26.40
2019-03-06T19:49:32.019Z,26.40
2019-03-06T19:52:06.169Z,26.50
2019-03-06T19:54:40.055Z,26.50
2019-03-06T19:57:14.034Z,26.40
2019-03-06T19:59:49.297Z,26.40
2019-03-06T20:02:23.651Z,26.30
2019-03-06T20:04:57.909Z,26.50
2019-03-06T20:07:32.220Z,26.40
2019-03-06T20:10:06.282Z,26.60
2019-03-06T20:12:40.984Z,26.50
2019-03-06T20:15:16.949Z,26.30
2019-03-06T20:17:51.078Z,26.10
2019-03-06T20:20:25.341Z,26.20
2019-03-06T20:22:59.636Z,26.00
2019-03-06T20:25:34.552Z,25.90
2019-03-06T20:28:08.236Z,26.10
2019-03-06T20:30:43.027Z,25.80
2019-03-06T20:33:16.918Z,25.80
2019-03-06T20:35:51.019Z,26.00
2019-03-06T20:38:24.932Z,26.10
2019-03-06T20:40:58.950Z,26.00
2019-03-06T20:43:32.614Z,25.90
2019-03-06T20:46:07.175Z,25.80
2019-03-06T20:48:41.403Z,25.80
2019-03-06T20:51:15.062Z,25.50
2019-03-06T20:53:48.935Z,25.50
2019-03-06T20:56:23.344Z,25.60
2019-03-06T20:58:57.817Z,25.00
2019-03-06T21:01:33.292Z,24.60
2019-03-06T21:04:07.114Z,24.80
2019-03-06T21:06:41.190Z,24.90
2019-03-06T21:09:14.614Z,25.00
2019-03-06T21:11:48.501Z,24.90
2019-03-06T21:14:21.812Z,25.20
2019-03-06T21:16:55.438Z,25.30
2019-03-06T21:19:28.635Z,25.20
2019-03-06T21:22:02.357Z,25.10
2019-03-06T21:24:35.795Z,25.30
2019-03-06T21:27:09.617Z,25.00
2019-03-06T21:29:42.237Z,24.70
2019-03-06T21:32:14.874Z,24.90
2019-03-06T21:34:47.525Z,25.00
2019-03-06T21:37:19.661Z,24.80
2019-03-06T21:39:52.118Z,25.00
2019-03-06T21:42:24.516Z,25.10
2019-03-06T21:44:57.827Z,25.20
2019-03-06T21:47:32.031Z,25.30
2019-03-06T21:50:06.738Z,25.50
2019-03-06T21:52:39.105Z,25.10
2019-03-06T21:55:13.211Z,25.10
2019-03-06T21:57:45.396Z,25.30
2019-03-06T22:00:20.545Z,25.40
2019-03-06T22:02:53.026Z,25.30
2019-03-06T22:05:24.997Z,25.30
2019-03-06T22:07:56.950Z,25.20
2019-03-06T22:10:29.537Z,25.10
2019-03-06T22:13:01.797Z,25.20
2019-03-06T22:15:33.974Z,25.30
2019-03-06T22:18:06.901Z,25.50
2019-03-06T22:20:39.018Z,25.40
2019-03-06T22:23:11.234Z,25.30
2019-03-06T22:25:44.574Z,25.30
2019-03-06T22:28:16.646Z,25.30
2019-03-06T22:30:48.452Z,25.30
2019-03-06T22:33:20.629Z,25.50
2019-03-06T22:35:52.405Z,25.50
2019-03-06T22:38:24.515Z,25.70
2019-03-06T22:40:56.504Z,25.40
2019-03-06T22:43:28.824Z,25.50
2019-03-06T22:46:00.958Z,25.40
2019-03-06T22:48:32.946Z,25.20
2019-03-06T22:51:04.741Z,25.00
2019-03-06T22:53:36.882Z,24.90
2019-03-06T22:56:08.940Z,24.40
2019-03-06T22:58:40.766Z,24.40
2019-03-06T23:01:26.925Z,24.70
2019-03-06T23:04:01.344Z,24.40
2019-03-06T23:06:33.312Z,24.70
2019-03-06T23:09:09.205Z,24.60
2019-03-06T23:11:43.350Z,24.60
2019-03-06T23:14:15.423Z,25.00
2019-03-06T23:16:47.265Z,24.50
2019-03-06T23:19:19.354Z,24.70
2019-03-06T23:21:51.128Z,24.80
2019-03-06T23:24:23.191Z,25.00
2019-03-06T23:26:55.200Z,25.20
2019-03-06T23:29:27.705Z,24.70
2019-03-06T23:31:59.456Z,25.00
2019-03-06T23:34:31.646Z,24.90
2019-03-06T23:37:03.414Z,25.10
2019-03-06T23:39:35.583Z,24.90
2019-03-06T23:42:08.590Z,24.60
2019-03-06T23:44:41.197Z,24.50
2019-03-06T23:47:13.362Z,24.40
2019-03-06T23:49:45.723Z,24.20
2019-03-06T23:52:32.118Z,24.40
2019-03-06T23:55:04.384Z,24.30
2019-03-06T23:57:37.005Z,24.50
